sensor_id;sensor_type;location;lat;lon;timestamp;P1;durP1;ratioP1;P2;durP2;ratioP2
65039;SDS011;51606;45.000;38.612;2023-04-16T00:01:29;4.40;;;1.88;;
65039;SDS011;51606;45.000;38.612;2023-04-16T00:03:55;3.92;;;2.00;;
65039;SDS011;51606;45.000;38.612;2023-04-16T00:06:22;2.58;;;1.67;;
65039;SDS011;51606;45.000;38.612;2023-04-16T00:08:48;4.15;;;2.53;;
65039;SDS011;51606;45.000;38.612;2023-04-16T00:11:16;1.92;;;1.42;;
65039;SDS011;51606;45.000;38.612;2023-04-16T00:13:42;3.15;;;2.25;;
65039;SDS011;51606;45.000;38.612;2023-04-16T00:16:09;4.05;;;2.53;;
65039;SDS011;51606;45.000;38.612;2023-04-16T00:18:35;2.40;;;1.92;;
65039;SDS011;51606;45.000;38.612;2023-04-16T00:21:02;2.10;;;1.20;;
65039;SDS011;51606;45.000;38.612;2023-04-16T00:23:28;2.38;;;1.77;;
65039;SDS011;51606;45.000;38.612;2023-04-16T00:25:55;2.72;;;1.83;;
65039;SDS011;51606;45.000;38.612;2023-04-16T00:28:24;2.42;;;1.58;;
65039;SDS011;51606;45.000;38.612;2023-04-16T00:30:52;1.50;;;1.08;;
65039;SDS011;51606;45.000;38.612;2023-04-16T00:33:19;4.65;;;3.05;;
65039;SDS011;51606;45.000;38.612;2023-04-16T00:35:46;2.22;;;1.52;;
65039;SDS011;51606;45.000;38.612;2023-04-16T00:38:13;1.52;;;1.42;;
65039;SDS011;51606;45.000;38.612;2023-04-16T00:40:39;3.88;;;1.80;;
65039;SDS011;51606;45.000;38.612;2023-04-16T00:43:06;2.85;;;1.83;;
65039;SDS011;51606;45.000;38.612;2023-04-16T00:45:32;3.53;;;2.40;;
65039;SDS011;51606;45.000;38.612;2023-04-16T00:47:58;2.03;;;1.65;;
65039;SDS011;51606;45.000;38.612;2023-04-16T00:50:25;2.67;;;1.92;;
65039;SDS011;51606;45.000;38.612;2023-04-16T00:52:52;2.97;;;2.38;;
65039;SDS011;51606;45.000;38.612;2023-04-16T00:55:18;5.70;;;3.20;;
65039;SDS011;51606;45.000;38.612;2023-04-16T00:57:45;2.58;;;2.00;;
65039;SDS011;51606;45.000;38.612;2023-04-16T01:00:12;1.88;;;1.38;;
65039;SDS011;51606;45.000;38.612;2023-04-16T01:02:38;4.40;;;2.08;;
65039;SDS011;51606;45.000;38.612;2023-04-16T01:05:05;5.78;;;2.97;;
65039;SDS011;51606;45.000;38.612;2023-04-16T01:07:31;4.72;;;2.40;;
65039;SDS011;51606;45.000;38.612;2023-04-16T01:09:58;6.85;;;3.42;;
65039;SDS011;51606;45.000;38.612;2023-04-16T01:12:24;3.00;;;2.22;;
65039;SDS011;51606;45.000;38.612;2023-04-16T01:14:51;2.80;;;1.67;;
65039;SDS011;51606;45.000;38.612;2023-04-16T01:17:17;3.38;;;1.95;;
65039;SDS011;51606;45.000;38.612;2023-04-16T01:19:44;2.47;;;1.65;;
65039;SDS011;51606;45.000;38.612;2023-04-16T01:22:10;4.35;;;2.95;;
65039;SDS011;51606;45.000;38.612;2023-04-16T01:24:37;2.67;;;2.05;;
65039;SDS011;51606;45.000;38.612;2023-04-16T01:27:04;1.48;;;1.38;;
65039;SDS011;51606;45.000;38.612;2023-04-16T01:29:31;3.50;;;2.00;;
65039;SDS011;51606;45.000;38.612;2023-04-16T01:31:59;4.10;;;2.30;;
65039;SDS011;51606;45.000;38.612;2023-04-16T01:34:37;1.98;;;1.33;;
65039;SDS011;51606;45.000;38.612;2023-04-16T01:37:03;3.53;;;1.80;;
65039;SDS011;51606;45.000;38.612;2023-04-16T01:39:30;3.63;;;2.25;;
65039;SDS011;51606;45.000;38.612;2023-04-16T01:41:56;1.95;;;1.38;;
65039;SDS011;51606;45.000;38.612;2023-04-16T01:44:23;2.22;;;1.73;;
65039;SDS011;51606;45.000;38.612;2023-04-16T01:46:50;3.97;;;2.92;;
65039;SDS011;51606;45.000;38.612;2023-04-16T01:49:16;5.25;;;3.25;;
65039;SDS011;51606;45.000;38.612;2023-04-16T01:51:43;3.72;;;1.90;;
65039;SDS011;51606;45.000;38.612;2023-04-16T01:54:09;2.58;;;1.33;;
65039;SDS011;51606;45.000;38.612;2023-04-16T01:56:35;1.90;;;1.70;;
65039;SDS011;51606;45.000;38.612;2023-04-16T01:59:02;2.47;;;2.00;;
65039;SDS011;51606;45.000;38.612;2023-04-16T02:01:34;3.63;;;2.45;;
65039;SDS011;51606;45.000;38.612;2023-04-16T02:04:01;6.78;;;3.40;;
65039;SDS011;51606;45.000;38.612;2023-04-16T02:06:28;2.70;;;1.65;;
65039;SDS011;51606;45.000;38.612;2023-04-16T02:08:56;2.80;;;1.75;;
65039;SDS011;51606;45.000;38.612;2023-04-16T02:11:23;6.28;;;2.35;;
65039;SDS011;51606;45.000;38.612;2023-04-16T02:13:49;4.75;;;2.60;;
65039;SDS011;51606;45.000;38.612;2023-04-16T02:16:17;2.97;;;2.30;;
65039;SDS011;51606;45.000;38.612;2023-04-16T02:18:58;2.30;;;1.42;;
65039;SDS011;51606;45.000;38.612;2023-04-16T02:21:28;5.20;;;1.98;;
65039;SDS011;51606;45.000;38.612;2023-04-16T02:23:56;1.63;;;1.30;;
65039;SDS011;51606;45.000;38.612;2023-04-16T02:26:26;5.60;;;2.78;;
65039;SDS011;51606;45.000;38.612;2023-04-16T02:28:57;3.25;;;1.67;;
65039;SDS011;51606;45.000;38.612;2023-04-16T02:31:33;3.78;;;2.65;;
65039;SDS011;51606;45.000;38.612;2023-04-16T02:34:00;2.92;;;1.85;;
65039;SDS011;51606;45.000;38.612;2023-04-16T02:36:26;5.78;;;2.42;;
65039;SDS011;51606;45.000;38.612;2023-04-16T02:38:54;1.98;;;1.65;;
65039;SDS011;51606;45.000;38.612;2023-04-16T02:41:20;3.17;;;2.30;;
65039;SDS011;51606;45.000;38.612;2023-04-16T02:43:46;2.90;;;2.00;;
65039;SDS011;51606;45.000;38.612;2023-04-16T02:46:13;1.92;;;1.73;;
65039;SDS011;51606;45.000;38.612;2023-04-16T02:48:39;26.77;;;2.22;;
65039;SDS011;51606;45.000;38.612;2023-04-16T02:51:05;12.80;;;2.63;;
65039;SDS011;51606;45.000;38.612;2023-04-16T02:53:32;4.40;;;1.77;;
65039;SDS011;51606;45.000;38.612;2023-04-16T02:55:59;3.58;;;2.10;;
65039;SDS011;51606;45.000;38.612;2023-04-16T02:58:25;4.93;;;1.92;;
65039;SDS011;51606;45.000;38.612;2023-04-16T03:00:52;6.63;;;2.83;;
65039;SDS011;51606;45.000;38.612;2023-04-16T03:03:19;3.28;;;2.20;;
65039;SDS011;51606;45.000;38.612;2023-04-16T03:05:46;3.38;;;2.95;;
65039;SDS011;51606;45.000;38.612;2023-04-16T03:08:15;5.38;;;2.35;;
65039;SDS011;51606;45.000;38.612;2023-04-16T03:10:41;9.23;;;2.75;;
65039;SDS011;51606;45.000;38.612;2023-04-16T03:13:08;2.20;;;1.30;;
65039;SDS011;51606;45.000;38.612;2023-04-16T08:13:10;2.60;;;1.63;;
65039;SDS011;51606;45.000;38.612;2023-04-16T08:15:36;3.47;;;2.53;;
65039;SDS011;51606;45.000;38.612;2023-04-16T08:18:03;3.50;;;1.70;;
65039;SDS011;51606;45.000;38.612;2023-04-16T08:20:31;3.08;;;2.28;;
65039;SDS011;51606;45.000;38.612;2023-04-16T08:22:58;3.70;;;2.63;;
65039;SDS011;51606;45.000;38.612;2023-04-16T08:25:24;3.78;;;2.20;;
65039;SDS011;51606;45.000;38.612;2023-04-16T08:27:50;3.42;;;2.47;;
65039;SDS011;51606;45.000;38.612;2023-04-16T08:30:17;3.22;;;2.30;;
65039;SDS011;51606;45.000;38.612;2023-04-16T08:32:43;2.47;;;1.90;;
65039;SDS011;51606;45.000;38.612;2023-04-16T08:35:10;3.90;;;1.90;;
65039;SDS011;51606;45.000;38.612;2023-04-16T08:37:36;5.25;;;2.05;;
65039;SDS011;51606;45.000;38.612;2023-04-16T08:40:03;3.33;;;2.20;;
65039;SDS011;51606;45.000;38.612;2023-04-16T08:42:31;3.67;;;2.15;;
65039;SDS011;51606;45.000;38.612;2023-04-16T08:45:06;3.38;;;1.90;;
65039;SDS011;51606;45.000;38.612;2023-04-16T08:47:37;3.35;;;2.05;;
65039;SDS011;51606;45.000;38.612;2023-04-16T08:50:04;2.63;;;1.88;;
65039;SDS011;51606;45.000;38.612;2023-04-16T08:52:31;2.60;;;1.88;;
65039;SDS011;51606;45.000;38.612;2023-04-16T08:55:12;6.03;;;1.95;;
65039;SDS011;51606;45.000;38.612;2023-04-16T09:00:40;3.03;;;2.08;;
65039;SDS011;51606;45.000;38.612;2023-04-16T09:03:08;4.30;;;2.45;;
65039;SDS011;51606;45.000;38.612;2023-04-16T09:05:37;5.43;;;2.50;;
65039;SDS011;51606;45.000;38.612;2023-04-16T09:08:05;2.28;;;1.52;;
65039;SDS011;51606;45.000;38.612;2023-04-16T09:10:32;5.07;;;2.20;;
65039;SDS011;51606;45.000;38.612;2023-04-16T09:12:58;2.42;;;1.50;;
65039;SDS011;51606;45.000;38.612;2023-04-16T09:15:26;2.75;;;1.85;;
65039;SDS011;51606;45.000;38.612;2023-04-16T09:17:52;6.22;;;2.05;;
65039;SDS011;51606;45.000;38.612;2023-04-16T09:20:21;2.90;;;1.95;;
65039;SDS011;51606;45.000;38.612;2023-04-16T09:22:47;2.42;;;1.75;;
65039;SDS011;51606;45.000;38.612;2023-04-16T09:25:14;3.08;;;2.53;;
65039;SDS011;51606;45.000;38.612;2023-04-16T09:27:40;2.38;;;1.77;;
65039;SDS011;51606;45.000;38.612;2023-04-16T09:46:11;2.25;;;1.88;;
65039;SDS011;51606;45.000;38.612;2023-04-16T09:48:38;9.70;;;2.60;;
65039;SDS011;51606;45.000;38.612;2023-04-16T09:51:04;3.22;;;1.83;;
65039;SDS011;51606;45.000;38.612;2023-04-16T09:53:31;3.83;;;1.52;;
65039;SDS011;51606;45.000;38.612;2023-04-16T09:55:59;1.75;;;1.35;;
65039;SDS011;51606;45.000;38.612;2023-04-16T09:58:27;3.67;;;1.80;;
65039;SDS011;51606;45.000;38.612;2023-04-16T10:00:54;3.55;;;1.92;;
65039;SDS011;51606;45.000;38.612;2023-04-16T10:03:35;3.05;;;2.00;;
65039;SDS011;51606;45.000;38.612;2023-04-16T10:08:34;2.38;;;1.38;;
65039;SDS011;51606;45.000;38.612;2023-04-16T10:11:01;1.55;;;1.20;;
65039;SDS011;51606;45.000;38.612;2023-04-16T10:13:27;3.17;;;1.70;;
65039;SDS011;51606;45.000;38.612;2023-04-16T10:15:55;5.65;;;1.67;;
65039;SDS011;51606;45.000;38.612;2023-04-16T10:18:22;3.45;;;1.40;;
65039;SDS011;51606;45.000;38.612;2023-04-16T10:20:49;1.88;;;1.38;;
65039;SDS011;51606;45.000;38.612;2023-04-16T10:23:15;3.90;;;1.60;;
65039;SDS011;51606;45.000;38.612;2023-04-16T10:25:44;9.05;;;2.03;;
65039;SDS011;51606;45.000;38.612;2023-04-16T10:28:12;5.53;;;1.55;;
65039;SDS011;51606;45.000;38.612;2023-04-16T10:30:39;1.30;;;1.20;;
65039;SDS011;51606;45.000;38.612;2023-04-16T10:33:49;2.28;;;1.70;;
65039;SDS011;51606;45.000;38.612;2023-04-16T10:36:14;1.90;;;1.38;;
65039;SDS011;51606;45.000;38.612;2023-04-16T10:38:45;1.90;;;1.58;;
65039;SDS011;51606;45.000;38.612;2023-04-16T10:41:14;4.95;;;1.40;;
65039;SDS011;51606;45.000;38.612;2023-04-16T10:43:44;1.77;;;1.50;;
65039;SDS011;51606;45.000;38.612;2023-04-16T10:49:01;2.70;;;1.52;;
65039;SDS011;51606;45.000;38.612;2023-04-16T10:51:37;1.33;;;1.10;;
65039;SDS011;51606;45.000;38.612;2023-04-16T10:56:33;6.78;;;1.65;;
65039;SDS011;51606;45.000;38.612;2023-04-16T10:59:04;2.40;;;1.80;;
65039;SDS011;51606;45.000;38.612;2023-04-16T11:01:33;1.20;;;1.00;;
65039;SDS011;51606;45.000;38.612;2023-04-16T11:04:01;3.10;;;1.20;;
65039;SDS011;51606;45.000;38.612;2023-04-16T11:12:39;2.15;;;1.27;;
65039;SDS011;51606;45.000;38.612;2023-04-16T11:15:07;1.40;;;1.08;;
65039;SDS011;51606;45.000;38.612;2023-04-16T11:17:39;1.70;;;1.38;;
65039;SDS011;51606;45.000;38.612;2023-04-16T11:20:19;2.40;;;1.25;;
65039;SDS011;51606;45.000;38.612;2023-04-16T11:22:50;3.78;;;1.40;;
65039;SDS011;51606;45.000;38.612;2023-04-16T11:25:19;3.10;;;1.30;;
65039;SDS011;51606;45.000;38.612;2023-04-16T11:27:49;1.60;;;1.30;;
65039;SDS011;51606;45.000;38.612;2023-04-16T11:30:17;1.52;;;1.00;;
65039;SDS011;51606;45.000;38.612;2023-04-16T11:32:53;2.60;;;1.13;;
65039;SDS011;51606;45.000;38.612;2023-04-16T11:35:19;1.75;;;1.15;;
65039;SDS011;51606;45.000;38.612;2023-04-16T11:37:46;2.67;;;1.70;;
65039;SDS011;51606;45.000;38.612;2023-04-16T11:40:13;4.38;;;1.55;;
65039;SDS011;51606;45.000;38.612;2023-04-16T11:42:40;1.85;;;0.88;;
65039;SDS011;51606;45.000;38.612;2023-04-16T11:45:07;3.67;;;1.60;;
65039;SDS011;51606;45.000;38.612;2023-04-16T11:47:43;3.53;;;1.40;;
65039;SDS011;51606;45.000;38.612;2023-04-16T11:52:42;4.30;;;1.63;;
65039;SDS011;51606;45.000;38.612;2023-04-16T11:55:09;1.67;;;1.30;;
65039;SDS011;51606;45.000;38.612;2023-04-16T11:57:35;1.65;;;1.15;;
65039;SDS011;51606;45.000;38.612;2023-04-16T12:00:02;32.47;;;2.50;;
65039;SDS011;51606;45.000;38.612;2023-04-16T12:07:59;3.17;;;2.28;;
65039;SDS011;51606;45.000;38.612;2023-04-16T12:10:52;3.72;;;1.45;;
65039;SDS011;51606;45.000;38.612;2023-04-16T12:13:20;3.33;;;1.30;;
65039;SDS011;51606;45.000;38.612;2023-04-16T12:15:47;16.42;;;1.85;;
65039;SDS011;51606;45.000;38.612;2023-04-16T12:18:15;6.82;;;1.50;;
65039;SDS011;51606;45.000;38.612;2023-04-16T12:20:43;1.98;;;1.35;;
65039;SDS011;51606;45.000;38.612;2023-04-16T12:23:20;3.40;;;1.60;;
65039;SDS011;51606;45.000;38.612;2023-04-16T12:25:48;2.72;;;1.70;;
65039;SDS011;51606;45.000;38.612;2023-04-16T12:28:32;1.80;;;1.15;;
65039;SDS011;51606;45.000;38.612;2023-04-16T12:31:01;1.70;;;1.08;;
65039;SDS011;51606;45.000;38.612;2023-04-16T12:33:29;4.60;;;1.65;;
65039;SDS011;51606;45.000;38.612;2023-04-16T12:35:56;5.40;;;1.23;;
65039;SDS011;51606;45.000;38.612;2023-04-16T12:38:22;1.77;;;1.20;;
65039;SDS011;51606;45.000;38.612;2023-04-16T12:40:50;2.10;;;0.95;;
65039;SDS011;51606;45.000;38.612;2023-04-16T12:43:21;7.60;;;1.05;;
65039;SDS011;51606;45.000;38.612;2023-04-16T12:45:47;4.47;;;1.50;;
65039;SDS011;51606;45.000;38.612;2023-04-16T12:48:14;3.70;;;1.40;;
65039;SDS011;51606;45.000;38.612;2023-04-16T12:50:40;2.83;;;1.52;;
65039;SDS011;51606;45.000;38.612;2023-04-16T12:53:08;1.92;;;1.35;;
65039;SDS011;51606;45.000;38.612;2023-04-16T12:55:35;2.22;;;1.35;;
65039;SDS011;51606;45.000;38.612;2023-04-16T12:58:02;1.40;;;1.15;;
65039;SDS011;51606;45.000;38.612;2023-04-16T13:00:28;1.70;;;1.33;;
65039;SDS011;51606;45.000;38.612;2023-04-16T13:02:54;1.92;;;1.50;;
65039;SDS011;51606;45.000;38.612;2023-04-16T13:05:21;1.20;;;1.10;;
65039;SDS011;51606;45.000;38.612;2023-04-16T13:07:47;1.38;;;1.27;;
65039;SDS011;51606;45.000;38.612;2023-04-16T13:10:14;2.88;;;1.48;;
65039;SDS011;51606;45.000;38.612;2023-04-16T13:12:41;4.80;;;1.02;;
65039;SDS011;51606;45.000;38.612;2023-04-16T13:15:07;2.35;;;1.40;;
65039;SDS011;51606;45.000;38.612;2023-04-16T13:17:35;2.33;;;1.50;;
65039;SDS011;51606;45.000;38.612;2023-04-16T13:20:01;2.67;;;1.67;;
65039;SDS011;51606;45.000;38.612;2023-04-16T13:22:28;3.22;;;1.27;;
65039;SDS011;51606;45.000;38.612;2023-04-16T13:24:54;6.47;;;1.75;;
65039;SDS011;51606;45.000;38.612;2023-04-16T13:27:21;1.98;;;1.38;;
65039;SDS011;51606;45.000;38.612;2023-04-16T13:29:47;2.92;;;1.23;;
65039;SDS011;51606;45.000;38.612;2023-04-16T13:32:14;8.10;;;1.38;;
65039;SDS011;51606;45.000;38.612;2023-04-16T13:34:41;1.58;;;1.27;;
65039;SDS011;51606;45.000;38.612;2023-04-16T13:37:07;13.38;;;1.48;;
65039;SDS011;51606;45.000;38.612;2023-04-16T13:39:34;1.77;;;1.30;;
65039;SDS011;51606;45.000;38.612;2023-04-16T13:42:01;2.10;;;1.50;;
65039;SDS011;51606;45.000;38.612;2023-04-16T13:44:27;4.07;;;1.48;;
65039;SDS011;51606;45.000;38.612;2023-04-16T13:46:54;4.43;;;1.65;;
65039;SDS011;51606;45.000;38.612;2023-04-16T13:49:21;1.23;;;1.02;;
65039;SDS011;51606;45.000;38.612;2023-04-16T13:51:48;0.88;;;0.70;;
65039;SDS011;51606;45.000;38.612;2023-04-16T13:54:14;2.72;;;1.55;;
65039;SDS011;51606;45.000;38.612;2023-04-16T13:56:41;1.55;;;1.17;;
65039;SDS011;51606;45.000;38.612;2023-04-16T13:59:07;3.47;;;1.90;;
65039;SDS011;51606;45.000;38.612;2023-04-16T14:01:33;1.90;;;1.27;;
65039;SDS011;51606;45.000;38.612;2023-04-16T14:04:00;1.20;;;1.10;;
65039;SDS011;51606;45.000;38.612;2023-04-16T14:06:31;2.60;;;1.27;;
65039;SDS011;51606;45.000;38.612;2023-04-16T14:08:57;4.00;;;1.23;;
65039;SDS011;51606;45.000;38.612;2023-04-16T14:11:24;1.38;;;1.05;;
65039;SDS011;51606;45.000;38.612;2023-04-16T14:13:50;1.40;;;1.20;;
65039;SDS011;51606;45.000;38.612;2023-04-16T14:16:17;2.03;;;1.30;;
65039;SDS011;51606;45.000;38.612;2023-04-16T14:18:43;6.10;;;1.13;;
65039;SDS011;51606;45.000;38.612;2023-04-16T14:21:11;2.03;;;0.98;;
65039;SDS011;51606;45.000;38.612;2023-04-16T14:23:38;3.72;;;1.38;;
65039;SDS011;51606;45.000;38.612;2023-04-16T14:26:04;1.98;;;1.20;;
65039;SDS011;51606;45.000;38.612;2023-04-16T14:28:31;1.30;;;1.20;;
65039;SDS011;51606;45.000;38.612;2023-04-16T14:30:57;2.50;;;1.40;;
65039;SDS011;51606;45.000;38.612;2023-04-16T14:33:24;1.13;;;0.98;;
65039;SDS011;51606;45.000;38.612;2023-04-16T14:35:50;1.52;;;1.05;;
65039;SDS011;51606;45.000;38.612;2023-04-16T14:38:16;1.08;;;0.88;;
65039;SDS011;51606;45.000;38.612;2023-04-16T14:40:43;1.90;;;1.20;;
65039;SDS011;51606;45.000;38.612;2023-04-16T14:43:09;2.15;;;1.40;;
65039;SDS011;51606;45.000;38.612;2023-04-16T14:45:36;1.73;;;1.20;;
65039;SDS011;51606;45.000;38.612;2023-04-16T14:48:03;1.77;;;1.08;;
65039;SDS011;51606;45.000;38.612;2023-04-16T14:50:32;2.45;;;1.40;;
65039;SDS011;51606;45.000;38.612;2023-04-16T14:53:03;2.58;;;0.93;;
65039;SDS011;51606;45.000;38.612;2023-04-16T14:55:30;2.35;;;1.42;;
65039;SDS011;51606;45.000;38.612;2023-04-16T14:57:57;1.30;;;0.90;;
65039;SDS011;51606;45.000;38.612;2023-04-16T15:00:24;1.23;;;1.05;;
65039;SDS011;51606;45.000;38.612;2023-04-16T15:02:51;3.50;;;1.30;;
65039;SDS011;51606;45.000;38.612;2023-04-16T15:05:22;1.58;;;1.30;;
65039;SDS011;51606;45.000;38.612;2023-04-16T15:07:48;1.30;;;1.00;;
65039;SDS011;51606;45.000;38.612;2023-04-16T15:10:15;1.80;;;1.17;;
65039;SDS011;51606;45.000;38.612;2023-04-16T15:12:41;4.18;;;1.33;;
65039;SDS011;51606;45.000;38.612;2023-04-16T15:15:08;1.58;;;1.08;;
65039;SDS011;51606;45.000;38.612;2023-04-16T15:17:35;1.45;;;1.20;;
65039;SDS011;51606;45.000;38.612;2023-04-16T15:20:01;17.33;;;1.30;;
65039;SDS011;51606;45.000;38.612;2023-04-16T15:22:32;0.73;;;0.68;;
65039;SDS011;51606;45.000;38.612;2023-04-16T15:25:01;2.13;;;0.95;;
65039;SDS011;51606;45.000;38.612;2023-04-16T15:27:28;1.40;;;1.08;;
65039;SDS011;51606;45.000;38.612;2023-04-16T15:29:54;1.25;;;1.02;;
65039;SDS011;51606;45.000;38.612;2023-04-16T15:43:25;1.17;;;1.00;;
65039;SDS011;51606;45.000;38.612;2023-04-16T15:45:54;1.10;;;0.95;;
65039;SDS011;51606;45.000;38.612;2023-04-16T15:48:22;2.33;;;1.17;;
65039;SDS011;51606;45.000;38.612;2023-04-16T15:50:49;1.88;;;1.05;;
65039;SDS011;51606;45.000;38.612;2023-04-16T15:53:16;11.77;;;2.20;;
65039;SDS011;51606;45.000;38.612;2023-04-16T15:55:42;1.52;;;0.90;;
65039;SDS011;51606;45.000;38.612;2023-04-16T15:58:09;0.95;;;0.82;;
65039;SDS011;51606;45.000;38.612;2023-04-16T16:00:35;1.25;;;0.90;;
65039;SDS011;51606;45.000;38.612;2023-04-16T16:03:02;6.20;;;1.10;;
65039;SDS011;51606;45.000;38.612;2023-04-16T16:05:28;0.50;;;0.50;;
65039;SDS011;51606;45.000;38.612;2023-04-16T16:07:55;1.92;;;1.20;;
65039;SDS011;51606;45.000;38.612;2023-04-16T16:10:22;0.85;;;0.73;;
65039;SDS011;51606;45.000;38.612;2023-04-16T16:12:49;0.98;;;0.82;;
65039;SDS011;51606;45.000;38.612;2023-04-16T16:15:16;2.67;;;1.15;;
65039;SDS011;51606;45.000;38.612;2023-04-16T16:17:42;1.05;;;0.88;;
65039;SDS011;51606;45.000;38.612;2023-04-16T16:20:08;1.50;;;1.00;;
65039;SDS011;51606;45.000;38.612;2023-04-16T16:22:35;0.98;;;0.70;;
65039;SDS011;51606;45.000;38.612;2023-04-16T16:25:03;2.15;;;0.90;;
65039;SDS011;51606;45.000;38.612;2023-04-16T16:27:30;0.98;;;0.85;;
65039;SDS011;51606;45.000;38.612;2023-04-16T16:29:56;0.75;;;0.70;;
65039;SDS011;51606;45.000;38.612;2023-04-16T16:32:25;2.67;;;0.70;;
65039;SDS011;51606;45.000;38.612;2023-04-16T16:34:51;1.80;;;1.23;;
65039;SDS011;51606;45.000;38.612;2023-04-16T16:37:18;2.80;;;1.23;;
65039;SDS011;51606;45.000;38.612;2023-04-16T16:39:44;1.08;;;0.80;;
65039;SDS011;51606;45.000;38.612;2023-04-16T16:42:10;1.77;;;1.20;;
65039;SDS011;51606;45.000;38.612;2023-04-16T16:44:38;1.55;;;1.05;;
65039;SDS011;51606;45.000;38.612;2023-04-16T16:47:05;1.52;;;1.05;;
65039;SDS011;51606;45.000;38.612;2023-04-16T16:49:31;1.60;;;0.93;;
65039;SDS011;51606;45.000;38.612;2023-04-16T16:51:58;3.10;;;1.38;;
65039;SDS011;51606;45.000;38.612;2023-04-16T16:54:25;1.30;;;1.20;;
65039;SDS011;51606;45.000;38.612;2023-04-16T16:56:51;1.80;;;1.52;;
65039;SDS011;51606;45.000;38.612;2023-04-16T16:59:18;0.80;;;0.73;;
65039;SDS011;51606;45.000;38.612;2023-04-16T17:01:44;1.52;;;0.93;;
65039;SDS011;51606;45.000;38.612;2023-04-16T17:04:10;1.25;;;0.60;;
65039;SDS011;51606;45.000;38.612;2023-04-16T17:06:37;1.33;;;1.10;;
65039;SDS011;51606;45.000;38.612;2023-04-16T17:09:04;1.63;;;0.93;;
65039;SDS011;51606;45.000;38.612;2023-04-16T17:11:31;1.25;;;1.15;;
65039;SDS011;51606;45.000;38.612;2023-04-16T17:13:58;10.50;;;2.35;;
65039;SDS011;51606;45.000;38.612;2023-04-16T17:16:24;2.50;;;1.30;;
65039;SDS011;51606;45.000;38.612;2023-04-16T17:18:51;1.60;;;1.02;;
65039;SDS011;51606;45.000;38.612;2023-04-16T17:21:17;1.27;;;0.98;;
65039;SDS011;51606;45.000;38.612;2023-04-16T17:23:44;1.13;;;0.95;;
65039;SDS011;51606;45.000;38.612;2023-04-16T17:26:10;0.85;;;0.82;;
65039;SDS011;51606;45.000;38.612;2023-04-16T17:28:36;1.77;;;1.20;;
65039;SDS011;51606;45.000;38.612;2023-04-16T17:31:04;1.25;;;1.00;;
65039;SDS011;51606;45.000;38.612;2023-04-16T17:33:33;0.60;;;0.60;;
65039;SDS011;51606;45.000;38.612;2023-04-16T17:35:59;1.45;;;1.00;;
65039;SDS011;51606;45.000;38.612;2023-04-16T17:38:26;0.88;;;0.60;;
65039;SDS011;51606;45.000;38.612;2023-04-16T17:40:52;1.75;;;0.90;;
65039;SDS011;51606;45.000;38.612;2023-04-16T17:43:18;1.75;;;1.35;;
65039;SDS011;51606;45.000;38.612;2023-04-16T17:45:46;1.40;;;0.90;;
65039;SDS011;51606;45.000;38.612;2023-04-16T17:48:12;1.00;;;0.90;;
65039;SDS011;51606;45.000;38.612;2023-04-16T17:50:39;2.25;;;0.68;;
65039;SDS011;51606;45.000;38.612;2023-04-16T17:53:05;0.60;;;0.57;;
65039;SDS011;51606;45.000;38.612;2023-04-16T17:55:31;6.38;;;1.08;;
65039;SDS011;51606;45.000;38.612;2023-04-16T17:57:58;1.38;;;0.80;;
65039;SDS011;51606;45.000;38.612;2023-04-16T18:00:25;7.47;;;1.67;;
65039;SDS011;51606;45.000;38.612;2023-04-16T18:02:51;0.85;;;0.70;;
65039;SDS011;51606;45.000;38.612;2023-04-16T18:05:18;21.02;;;1.20;;
65039;SDS011;51606;45.000;38.612;2023-04-16T18:07:45;0.90;;;0.70;;
65039;SDS011;51606;45.000;38.612;2023-04-16T18:10:12;0.70;;;0.52;;
65039;SDS011;51606;45.000;38.612;2023-04-16T18:12:39;1.35;;;1.05;;
65039;SDS011;51606;45.000;38.612;2023-04-16T18:15:06;1.38;;;0.77;;
65039;SDS011;51606;45.000;38.612;2023-04-16T18:17:33;1.90;;;0.93;;
65039;SDS011;51606;45.000;38.612;2023-04-16T18:19:59;1.10;;;1.00;;
65039;SDS011;51606;45.000;38.612;2023-04-16T18:22:26;1.30;;;1.10;;
65039;SDS011;51606;45.000;38.612;2023-04-16T18:24:53;1.23;;;0.82;;
65039;SDS011;51606;45.000;38.612;2023-04-16T18:27:19;1.38;;;0.90;;
65039;SDS011;51606;45.000;38.612;2023-04-16T18:29:46;0.90;;;0.68;;
65039;SDS011;51606;45.000;38.612;2023-04-16T18:32:12;0.63;;;0.52;;
65039;SDS011;51606;45.000;38.612;2023-04-16T18:34:38;0.68;;;0.50;;
65039;SDS011;51606;45.000;38.612;2023-04-16T18:37:05;1.35;;;1.00;;
65039;SDS011;51606;45.000;38.612;2023-04-16T18:39:31;1.30;;;0.80;;
65039;SDS011;51606;45.000;38.612;2023-04-16T18:41:58;0.88;;;0.52;;
65039;SDS011;51606;45.000;38.612;2023-04-16T18:44:26;9.40;;;0.77;;
65039;SDS011;51606;45.000;38.612;2023-04-16T18:46:52;1.42;;;0.73;;
65039;SDS011;51606;45.000;38.612;2023-04-16T18:49:19;0.50;;;0.50;;
65039;SDS011;51606;45.000;38.612;2023-04-16T18:51:45;0.73;;;0.63;;
65039;SDS011;51606;45.000;38.612;2023-04-16T18:54:11;1.10;;;0.70;;
65039;SDS011;51606;45.000;38.612;2023-04-16T18:56:38;0.80;;;0.80;;
65039;SDS011;51606;45.000;38.612;2023-04-16T18:59:04;2.47;;;1.00;;
65039;SDS011;51606;45.000;38.612;2023-04-16T19:01:31;1.30;;;0.88;;
65039;SDS011;51606;45.000;38.612;2023-04-16T19:03:57;0.68;;;0.55;;
65039;SDS011;51606;45.000;38.612;2023-04-16T19:06:24;0.60;;;0.60;;
65039;SDS011;51606;45.000;38.612;2023-04-16T19:08:53;0.68;;;0.68;;
65039;SDS011;51606;45.000;38.612;2023-04-16T19:11:19;1.00;;;0.75;;
65039;SDS011;51606;45.000;38.612;2023-04-16T19:13:46;1.10;;;1.00;;
65039;SDS011;51606;45.000;38.612;2023-04-16T19:16:12;14.73;;;1.92;;
65039;SDS011;51606;45.000;38.612;2023-04-16T19:18:39;0.43;;;0.40;;
65039;SDS011;51606;45.000;38.612;2023-04-16T19:21:05;1.73;;;0.85;;
65039;SDS011;51606;45.000;38.612;2023-04-16T19:23:32;1.48;;;0.88;;
65039;SDS011;51606;45.000;38.612;2023-04-16T19:25:58;0.80;;;0.70;;
65039;SDS011;51606;45.000;38.612;2023-04-16T19:28:25;0.73;;;0.73;;
65039;SDS011;51606;45.000;38.612;2023-04-16T19:30:53;0.82;;;0.77;;
65039;SDS011;51606;45.000;38.612;2023-04-16T19:33:20;0.82;;;0.75;;
65039;SDS011;51606;45.000;38.612;2023-04-16T19:35:47;1.50;;;0.98;;
65039;SDS011;51606;45.000;38.612;2023-04-16T19:38:13;1.45;;;1.13;;
65039;SDS011;51606;45.000;38.612;2023-04-16T19:40:43;4.03;;;0.95;;
65039;SDS011;51606;45.000;38.612;2023-04-16T19:43:13;2.13;;;1.13;;
65039;SDS011;51606;45.000;38.612;2023-04-16T19:45:43;0.88;;;0.65;;
65039;SDS011;51606;45.000;38.612;2023-04-16T19:48:11;2.47;;;1.17;;
65039;SDS011;51606;45.000;38.612;2023-04-16T19:50:38;0.68;;;0.68;;
65039;SDS011;51606;45.000;38.612;2023-04-16T19:53:06;0.40;;;0.40;;
65039;SDS011;51606;45.000;38.612;2023-04-16T19:55:33;2.28;;;0.85;;
65039;SDS011;51606;45.000;38.612;2023-04-16T19:57:59;3.03;;;1.30;;
65039;SDS011;51606;45.000;38.612;2023-04-16T20:00:31;2.47;;;1.10;;
65039;SDS011;51606;45.000;38.612;2023-04-16T20:02:58;2.17;;;1.20;;
65039;SDS011;51606;45.000;38.612;2023-04-16T20:05:24;0.95;;;0.73;;
65039;SDS011;51606;45.000;38.612;2023-04-16T20:07:52;0.65;;;0.65;;
65039;SDS011;51606;45.000;38.612;2023-04-16T20:10:18;0.80;;;0.80;;
65039;SDS011;51606;45.000;38.612;2023-04-16T20:12:45;1.23;;;1.13;;
65039;SDS011;51606;45.000;38.612;2023-04-16T20:15:12;2.85;;;1.15;;
65039;SDS011;51606;45.000;38.612;2023-04-16T20:17:38;4.85;;;1.65;;
65039;SDS011;51606;45.000;38.612;2023-04-16T20:20:05;1.13;;;0.85;;
65039;SDS011;51606;45.000;38.612;2023-04-16T20:22:35;2.17;;;1.23;;
65039;SDS011;51606;45.000;38.612;2023-04-16T20:25:05;2.00;;;1.27;;